createdAt,value
2019-05-10T00:00:31.986Z,71.96
2019-05-10T00:03:18.223Z,71.55
2019-05-10T00:06:05.046Z,72.23
2019-05-10T00:08:47.799Z,74.05
2019-05-10T00:11:29.800Z,71.63
2019-05-10T00:14:00.025Z,71.00
2019-05-10T00:16:28.612Z,70.87
2019-05-10T00:18:57.182Z,70.32
2019-05-10T00:21:25.708Z,70.61
2019-05-10T00:23:54.295Z,70.56
2019-05-10T00:26:22.907Z,71.68
2019-05-10T00:28:51.531Z,71.61
2019-05-10T00:31:20.127Z,71.09
2019-05-10T00:33:48.666Z,71.72
2019-05-10T00:36:17.302Z,71.19
2019-05-10T00:38:45.806Z,70.43
2019-05-10T00:41:14.387Z,70.66
2019-05-10T00:43:43.060Z,70.11
2019-05-10T00:46:12.657Z,70.64
2019-05-10T00:48:41.171Z,71.05
2019-05-10T00:51:09.801Z,71.23
2019-05-10T00:53:38.389Z,70.65
2019-05-10T00:56:07.005Z,70.37
2019-05-10T00:58:35.522Z,69.99
2019-05-10T01:01:04.139Z,70.00
2019-05-10T01:03:32.720Z,70.37
2019-05-10T01:06:01.170Z,70.71
2019-05-10T01:08:29.847Z,71.08
2019-05-10T01:10:58.365Z,70.61
2019-05-10T01:13:27.040Z,71.26
2019-05-10T01:15:55.675Z,70.86
2019-05-10T01:18:24.166Z,71.37
2019-05-10T01:20:52.750Z,71.39
2019-05-10T01:23:21.367Z,71.23
2019-05-10T01:25:49.963Z,70.77
2019-05-10T01:28:18.589Z,70.94
2019-05-10T01:30:47.106Z,70.46
2019-05-10T01:33:15.627Z,70.87
2019-05-10T01:35:44.242Z,72.18
2019-05-10T01:38:13.361Z,72.18
2019-05-10T01:40:42.039Z,70.47
2019-05-10T01:43:10.667Z,70.51
2019-05-10T01:45:39.198Z,70.91
2019-05-10T01:48:07.731Z,70.97
2019-05-10T01:50:36.352Z,70.12
2019-05-10T01:53:04.926Z,70.39
2019-05-10T01:55:33.470Z,71.52
2019-05-10T01:58:02.034Z,71.44
2019-05-10T02:00:30.737Z,70.69
2019-05-10T02:02:59.320Z,71.12
2019-05-10T02:05:27.867Z,70.54
2019-05-10T02:07:56.483Z,70.49
2019-05-10T02:10:25.176Z,71.17
2019-05-10T02:12:53.751Z,71.10
2019-05-10T02:15:22.392Z,71.11
2019-05-10T02:17:50.998Z,71.64
2019-05-10T02:20:19.639Z,71.71
2019-05-10T02:22:48.065Z,70.26
2019-05-10T02:25:16.691Z,70.59
2019-05-10T02:27:45.222Z,70.71
2019-05-10T02:30:14.180Z,70.21
2019-05-10T02:32:42.831Z,70.48
2019-05-10T02:35:11.514Z,69.41
2019-05-10T02:37:40.092Z,70.19
2019-05-10T02:40:08.888Z,69.97
2019-05-10T02:42:37.485Z,70.31
2019-05-10T02:45:07.863Z,70.07
2019-05-10T02:47:36.423Z,69.99
2019-05-10T02:50:06.770Z,70.40
2019-05-10T02:52:35.405Z,70.25
2019-05-10T02:55:05.342Z,70.30
2019-05-10T02:57:33.960Z,70.89
2019-05-10T03:00:05.881Z,71.57
2019-05-10T03:02:36.061Z,72.51
2019-05-10T03:05:06.191Z,70.62
2019-05-10T03:07:39.126Z,69.98
2019-05-10T03:10:12.707Z,71.28
2019-05-10T03:12:42.067Z,72.80
2019-05-10T03:15:12.377Z,72.57
2019-05-10T03:17:41.729Z,72.48
2019-05-10T03:20:12.236Z,72.82
2019-05-10T03:22:44.350Z,72.87
2019-05-10T03:25:13.745Z,72.72
2019-05-10T03:27:42.620Z,72.43
2019-05-10T03:30:11.655Z,73.26
2019-05-10T03:32:40.242Z,73.01
2019-05-10T03:35:09.929Z,73.19
2019-05-10T03:37:38.722Z,72.75
2019-05-10T03:40:08.640Z,73.13
2019-05-10T03:42:37.333Z,73.27
2019-05-10T03:45:07.236Z,76.24
2019-05-10T03:47:35.858Z,73.84
2019-05-10T03:50:06.464Z,73.92
2019-05-10T03:52:35.035Z,73.27
2019-05-10T03:55:04.103Z,73.19
2019-05-10T03:57:32.660Z,73.32
2019-05-10T04:00:01.228Z,74.12
2019-05-10T04:02:29.781Z,74.98
2019-05-10T04:04:58.358Z,74.62
2019-05-10T04:07:26.976Z,75.98
2019-05-10T04:09:55.594Z,75.41
2019-05-10T04:12:24.126Z,75.51
2019-05-10T04:14:52.630Z,75.51
2019-05-10T04:17:21.218Z,75.34
2019-05-10T04:19:49.840Z,75.37
2019-05-10T04:22:18.369Z,75.52
2019-05-10T04:24:46.866Z,75.59
2019-05-10T04:27:30.627Z,76.77
2019-05-10T04:29:45.704Z,76.33
2019-05-10T04:32:14.292Z,74.54
2019-05-10T04:34:42.769Z,75.19
2019-05-10T04:37:11.324Z,74.36
2019-05-10T04:39:39.960Z,75.70
2019-05-10T04:42:08.544Z,76.60
2019-05-10T04:44:37.022Z,76.13
2019-05-10T04:47:05.570Z,76.01
2019-05-10T04:49:34.095Z,76.01
2019-05-10T04:52:02.712Z,76.24
2019-05-10T04:54:31.338Z,75.95
2019-05-10T04:57:00.291Z,76.08
2019-05-10T04:59:28.924Z,76.32
2019-05-10T05:01:57.544Z,76.63
2019-05-10T05:04:26.110Z,76.63
2019-05-10T05:06:54.698Z,77.17
2019-05-10T05:09:23.373Z,78.18
2019-05-10T05:11:51.977Z,77.04
2019-05-10T05:14:20.504Z,75.40
2019-05-10T05:16:49.141Z,74.77
2019-05-10T05:19:17.623Z,75.11
2019-05-10T05:21:46.179Z,75.03
2019-05-10T05:24:16.954Z,76.00
2019-05-10T05:26:45.181Z,76.14
2019-05-10T05:29:13.752Z,77.16
2019-05-10T05:31:42.358Z,76.79
2019-05-10T05:34:10.901Z,76.65
2019-05-10T05:36:39.373Z,75.87
2019-05-10T05:39:08.510Z,75.14
2019-05-10T05:41:47.599Z,75.42
2019-05-10T05:44:07.460Z,75.08
2019-05-10T05:46:36.100Z,74.74
2019-05-10T05:49:04.696Z,74.66
2019-05-10T05:51:33.417Z,75.68
2019-05-10T05:54:04.157Z,75.71
2019-05-10T05:56:32.422Z,73.17
2019-05-10T05:59:00.871Z,73.25
2019-05-10T06:01:29.892Z,73.18
2019-05-10T06:04:00.132Z,74.14
2019-05-10T06:06:28.815Z,72.57
2019-05-10T06:08:59.715Z,73.13
2019-05-10T06:11:29.638Z,74.12
2019-05-10T06:14:03.733Z,73.28
2019-05-10T06:16:28.314Z,72.18
2019-05-10T06:18:56.879Z,73.22
2019-05-10T06:21:26.796Z,72.57
2019-05-10T06:23:59.076Z,71.91
2019-05-10T06:26:28.604Z,70.75
2019-05-10T06:29:01.181Z,72.14
2019-05-10T06:31:26.853Z,72.73
2019-05-10T06:33:55.543Z,73.04
2019-05-10T06:36:24.160Z,72.72
2019-05-10T06:38:52.760Z,72.96
2019-05-10T06:41:21.333Z,72.32
2019-05-10T06:43:51.138Z,70.52
2019-05-10T06:46:23.581Z,70.24
2019-05-10T06:48:50.707Z,70.11
2019-05-10T06:51:19.343Z,70.66
2019-05-10T06:53:52.646Z,70.53
2019-05-10T06:56:18.695Z,70.44
2019-05-10T06:58:47.415Z,70.60
2019-05-10T07:01:16.134Z,70.15
2019-05-10T07:03:44.793Z,70.70
2019-05-10T07:06:13.376Z,70.80
2019-05-10T07:08:44.567Z,70.61
2019-05-10T07:11:12.237Z,69.92
2019-05-10T07:13:46.611Z,70.57
2019-05-10T07:16:15.024Z,70.97
2019-05-10T07:18:41.574Z,71.42
2019-05-10T07:21:10.115Z,70.91
2019-05-10T07:23:44.179Z,70.43
2019-05-10T07:26:09.908Z,69.83
2019-05-10T07:28:38.554Z,69.12
2019-05-10T07:31:07.080Z,68.09
2019-05-10T07:33:37.243Z,68.75
2019-05-10T07:36:14.380Z,69.44
2019-05-10T07:38:36.337Z,69.64
2019-05-10T07:41:04.965Z,65.92
2019-05-10T07:43:33.565Z,66.31
2019-05-10T07:46:06.224Z,66.11
2019-05-10T07:48:32.441Z,65.34
2019-05-10T07:51:01.093Z,61.84
2019-05-10T07:53:29.599Z,61.46
2019-05-10T07:56:00.018Z,61.53
2019-05-10T07:58:28.534Z,59.04
2019-05-10T08:00:57.203Z,60.77
2019-05-10T08:03:25.650Z,59.91
2019-05-10T08:05:57.002Z,59.34
2019-05-10T08:08:24.575Z,60.31
2019-05-10T08:10:53.139Z,61.18
2019-05-10T08:13:25.127Z,60.75
2019-05-10T08:15:52.120Z,60.56
2019-05-10T08:18:25.206Z,60.87
2019-05-10T08:20:58.171Z,61.13
2019-05-10T08:23:23.761Z,60.62
2019-05-10T08:25:53.426Z,60.62
2019-05-10T08:28:22.837Z,60.97
2019-05-10T08:30:58.181Z,60.98
2019-05-10T08:33:22.905Z,60.39
2019-05-10T08:36:00.358Z,59.85
2019-05-10T08:38:22.103Z,60.30
2019-05-10T08:40:52.791Z,57.53
2019-05-10T08:43:21.798Z,56.08
2019-05-10T08:45:52.425Z,54.75
2019-05-10T08:48:23.318Z,52.85
2019-05-10T08:50:57.220Z,54.20
2019-05-10T08:53:23.142Z,54.32
2019-05-10T08:55:52.637Z,52.84
2019-05-10T08:58:31.082Z,54.14
2019-05-10T09:01:10.194Z,53.97
2019-05-10T09:03:22.739Z,54.88
2019-05-10T09:05:52.456Z,54.99
2019-05-10T09:08:24.793Z,56.13
2019-05-10T09:10:53.026Z,55.92
2019-05-10T09:13:22.885Z,58.08
2019-05-10T09:15:56.483Z,55.89
2019-05-10T09:18:22.885Z,55.91
2019-05-10T09:20:54.134Z,55.97
2019-05-10T09:23:22.800Z,56.96
2019-05-10T09:25:52.033Z,56.67
2019-05-10T09:28:21.861Z,54.99
2019-05-10T09:30:57.592Z,55.10
2019-05-10T09:33:22.390Z,55.73
2019-05-10T09:35:54.656Z,56.48
2019-05-10T09:38:22.129Z,58.54
2019-05-10T09:40:55.917Z,55.90
2019-05-10T09:43:24.156Z,55.31
2019-05-10T09:45:53.017Z,56.35
2019-05-10T09:48:22.823Z,55.85
2019-05-10T09:50:55.190Z,56.86
2019-05-10T09:53:26.510Z,57.17
2019-05-10T09:56:00.089Z,57.11
2019-05-10T09:58:22.632Z,54.91
2019-05-10T10:00:51.241Z,54.32
2019-05-10T10:03:20.721Z,52.08
2019-05-10T10:05:49.357Z,52.28
2019-05-10T10:08:17.822Z,51.92
2019-05-10T10:10:47.593Z,52.22
2019-05-10T10:13:35.689Z,52.22
2019-05-10T10:15:52.099Z,52.85
2019-05-10T10:18:22.006Z,54.59
2019-05-10T10:20:48.259Z,54.53
2019-05-10T10:23:17.397Z,55.06
2019-05-10T10:25:48.180Z,59.98
2019-05-10T10:28:19.097Z,56.56
2019-05-10T10:30:50.413Z,54.64
2019-05-10T10:33:24.862Z,55.47
2019-05-10T10:35:48.129Z,54.29
2019-05-10T10:38:17.906Z,54.24
2019-05-10T10:40:46.623Z,55.53
2019-05-10T10:43:15.133Z,55.23
2019-05-10T10:45:43.882Z,54.80
2019-05-10T10:48:13.045Z,55.54
2019-05-10T10:50:44.282Z,54.71
2019-05-10T10:53:11.874Z,53.99
2019-05-10T10:55:40.668Z,53.59
2019-05-10T10:58:10.805Z,53.24
2019-05-10T11:00:39.474Z,52.32
2019-05-10T11:03:08.068Z,52.10
2019-05-10T11:05:36.648Z,51.67
2019-05-10T11:08:05.283Z,50.85
2019-05-10T11:10:34.121Z,51.30
2019-05-10T11:13:10.696Z,52.24
2019-05-10T11:15:36.347Z,53.65
2019-05-10T11:18:03.317Z,50.37
2019-05-10T11:20:32.044Z,51.47
2019-05-10T11:23:00.730Z,52.02
2019-05-10T11:25:29.455Z,51.31
2019-05-10T11:28:00.956Z,52.16
2019-05-10T11:30:28.473Z,51.15
2019-05-10T11:32:57.077Z,51.54
2019-05-10T11:35:31.231Z,53.12
2019-05-10T11:37:55.870Z,52.10
2019-05-10T11:40:30.809Z,52.65
2019-05-10T11:42:54.852Z,52.66
2019-05-10T11:45:26.203Z,54.51
2019-05-10T11:47:58.952Z,54.56
2019-05-10T11:50:31.442Z,54.22
2019-05-10T11:52:54.555Z,54.77
2019-05-10T11:55:23.135Z,55.61
2019-05-10T11:59:04.843Z,55.90
2019-05-10T12:00:29.184Z,56.35
2019-05-10T12:03:06.921Z,55.42
2019-05-10T12:05:26.786Z,55.78
2019-05-10T12:07:54.833Z,56.11
2019-05-10T12:10:25.583Z,56.06
2019-05-10T12:13:08.587Z,63.76
2019-05-10T12:15:25.721Z,58.80
2019-05-10T12:20:38.937Z,58.96
2019-05-10T12:22:55.023Z,59.59
2019-05-10T12:25:42.085Z,60.81
2019-05-10T12:26:05.336Z,58.51
2019-05-10T12:27:53.994Z,60.87
2019-05-10T12:30:22.617Z,62.15
2019-05-10T12:32:56.101Z,62.91
2019-05-10T12:35:26.405Z,62.49
2019-05-10T12:37:54.133Z,62.43
2019-05-10T12:40:24.129Z,62.90
2019-05-10T12:42:53.145Z,63.54
2019-05-10T12:45:23.509Z,63.36
2019-05-10T12:47:52.543Z,63.49
2019-05-10T12:50:21.338Z,62.91
2019-05-10T12:53:02.709Z,61.28
2019-05-10T12:55:20.178Z,60.96
2019-05-10T12:57:48.785Z,60.75
2019-05-10T13:00:18.694Z,59.03
2019-05-10T13:02:51.311Z,57.79
2019-05-10T13:05:17.659Z,57.47
2019-05-10T13:07:46.229Z,56.71
2019-05-10T13:10:14.956Z,56.93
2019-05-10T13:12:46.841Z,56.94
2019-05-10T13:15:14.098Z,55.04
2019-05-10T13:17:49.586Z,54.01
2019-05-10T13:20:13.751Z,53.66
2019-05-10T13:22:42.365Z,54.83
2019-05-10T13:25:11.069Z,54.93
2019-05-10T13:27:39.677Z,54.29
2019-05-10T13:30:09.004Z,52.85
2019-05-10T13:32:37.771Z,52.36
2019-05-10T13:35:06.999Z,51.05
2019-05-10T13:37:35.578Z,51.74
2019-05-10T13:40:08.402Z,51.94
2019-05-10T13:42:43.167Z,50.91
2019-05-10T13:45:10.465Z,51.08
2019-05-10T13:47:39.098Z,51.05
2019-05-10T13:50:08.468Z,50.69
2019-05-10T13:52:38.831Z,50.21
2019-05-10T13:55:07.927Z,49.33
2019-05-10T13:57:36.577Z,49.87
2019-05-10T14:00:11.567Z,49.16
2019-05-10T14:02:40.156Z,48.13
2019-05-10T14:05:11.793Z,49.34
2019-05-10T14:07:39.558Z,50.52
2019-05-10T14:10:08.146Z,50.02
2019-05-10T14:12:36.663Z,50.86
2019-05-10T14:15:12.864Z,52.09
2019-05-10T14:17:36.503Z,52.89
2019-05-10T14:20:19.303Z,55.26
2019-05-10T14:22:37.850Z,59.56
2019-05-10T14:25:07.972Z,61.84
2019-05-10T14:27:38.541Z,62.93
2019-05-10T14:30:13.612Z,62.73
2019-05-10T14:32:38.549Z,63.87
2019-05-10T14:35:07.882Z,64.36
2019-05-10T14:37:36.554Z,63.92
2019-05-10T14:40:07.515Z,64.66
2019-05-10T14:42:36.093Z,64.66
2019-05-10T14:45:05.642Z,63.31
2019-05-10T14:47:46.648Z,63.47
2019-05-10T14:50:06.203Z,61.91
2019-05-10T14:52:34.719Z,63.27
2019-05-10T14:55:03.691Z,61.40
2019-05-10T14:57:32.209Z,63.03
2019-05-10T15:00:00.824Z,62.16
2019-05-10T15:02:29.469Z,60.87
2019-05-10T15:05:01.121Z,60.38
2019-05-10T15:07:28.297Z,60.51
2019-05-10T15:10:00.521Z,60.50
2019-05-10T15:12:27.141Z,60.39
2019-05-10T15:14:55.722Z,59.95
2019-05-10T15:17:24.651Z,60.05
2019-05-10T15:19:57.995Z,62.67
2019-05-10T15:22:24.816Z,62.60
2019-05-10T15:24:53.593Z,61.44
2019-05-10T15:27:23.999Z,60.21
2019-05-10T15:29:52.464Z,58.96
2019-05-10T15:32:21.006Z,58.24
2019-05-10T15:35:05.326Z,58.14
2019-05-10T15:37:20.199Z,60.14
2019-05-10T15:39:48.859Z,58.49
2019-05-10T15:42:17.374Z,59.37
2019-05-10T15:44:46.123Z,58.97
2019-05-10T15:47:20.269Z,58.95
2019-05-10T15:49:45.147Z,59.07
2019-05-10T15:52:18.065Z,59.36
2019-05-10T15:54:46.902Z,59.18
2019-05-10T15:57:19.986Z,62.56
2019-05-10T15:59:44.808Z,62.91
2019-05-10T16:02:13.403Z,62.53
2019-05-10T16:04:41.950Z,63.37
2019-05-10T16:07:14.472Z,63.21
2019-05-10T16:09:40.892Z,64.42
2019-05-10T16:12:09.580Z,64.20
2019-05-10T16:14:39.341Z,63.13
2019-05-10T16:17:10.421Z,63.60
2019-05-10T16:19:38.854Z,64.34
2019-05-10T16:22:07.494Z,64.70
2019-05-10T16:24:36.074Z,65.25
2019-05-10T16:27:04.687Z,66.80
2019-05-10T16:29:39.316Z,66.50
2019-05-10T16:32:03.527Z,66.98
2019-05-10T16:34:34.086Z,67.56
2019-05-10T16:37:02.504Z,67.71
2019-05-10T16:39:31.087Z,67.54
2019-05-10T16:41:59.602Z,66.81
2019-05-10T16:44:28.214Z,66.35
2019-05-10T16:46:56.817Z,66.55
2019-05-10T16:49:25.560Z,66.32
2019-05-10T16:51:54.217Z,65.44
2019-05-10T16:54:25.526Z,65.63
2019-05-10T16:56:59.376Z,66.83
2019-05-10T16:59:24.240Z,67.25
2019-05-10T17:02:03.577Z,68.42
2019-05-10T17:04:24.151Z,68.63
2019-05-10T17:06:55.559Z,68.38
2019-05-10T17:09:23.023Z,68.06
2019-05-10T17:11:51.584Z,66.65
2019-05-10T17:14:20.142Z,65.37
2019-05-10T17:16:49.603Z,64.02
2019-05-10T17:19:19.802Z,65.33
2019-05-10T17:21:48.459Z,64.46
2019-05-10T17:24:18.681Z,66.00
2019-05-10T17:26:47.272Z,65.18
2019-05-10T17:29:15.873Z,64.82
2019-05-10T17:31:45.512Z,63.90
2019-05-10T17:34:22.112Z,63.61
2019-05-10T17:36:44.964Z,63.68
2019-05-10T17:39:13.576Z,63.68
2019-05-10T17:41:42.204Z,62.61
2019-05-10T17:44:10.843Z,63.94
2019-05-10T17:46:39.428Z,63.88
2019-05-10T17:49:08.058Z,66.05
2019-05-10T17:51:36.683Z,65.82
2019-05-10T17:54:05.365Z,66.98
2019-05-10T17:56:38.734Z,66.82
2019-05-10T17:59:05.978Z,66.99
2019-05-10T18:01:34.668Z,64.55
2019-05-10T18:04:03.157Z,65.24
2019-05-10T18:06:31.758Z,64.29
2019-05-10T18:09:00.336Z,66.51
2019-05-10T18:11:28.991Z,66.21
2019-05-10T18:13:57.637Z,67.78
2019-05-10T18:16:26.517Z,67.77
2019-05-10T18:18:55.035Z,67.37
2019-05-10T18:21:24.214Z,67.84
2019-05-10T18:23:58.341Z,68.66
2019-05-10T18:26:23.338Z,68.46
2019-05-10T18:28:51.993Z,66.85
2019-05-10T18:31:20.649Z,66.64
2019-05-10T18:33:54.261Z,67.23
2019-05-10T18:36:19.563Z,68.40
2019-05-10T18:38:48.174Z,69.49
2019-05-10T18:41:16.748Z,68.83
2019-05-10T18:43:45.334Z,69.62
2019-05-10T18:46:14.065Z,69.70
2019-05-10T18:48:42.728Z,68.99
2019-05-10T18:51:11.452Z,68.93
2019-05-10T18:53:40.042Z,69.17
2019-05-10T18:56:08.663Z,67.77
2019-05-10T18:58:37.251Z,69.67
2019-05-10T19:01:05.899Z,69.48
2019-05-10T19:03:35.499Z,67.63
2019-05-10T19:06:11.271Z,67.62
2019-05-10T19:08:34.650Z,69.50
2019-05-10T19:11:04.270Z,71.09
2019-05-10T19:13:34.560Z,71.08
2019-05-10T19:16:03.669Z,71.01
2019-05-10T19:18:32.265Z,71.08
2019-05-10T19:21:00.907Z,70.46
2019-05-10T19:23:29.488Z,70.16
2019-05-10T19:25:58.092Z,69.89
2019-05-10T19:28:28.537Z,70.20
2019-05-10T19:30:58.609Z,69.30
2019-05-10T19:33:29.751Z,67.44
2019-05-10T19:35:58.098Z,68.25
2019-05-10T19:38:27.636Z,69.05
2019-05-10T19:40:56.236Z,69.73
2019-05-10T19:43:24.865Z,71.50
2019-05-10T19:45:57.262Z,72.95
2019-05-10T19:48:29.370Z,72.53
2019-05-10T19:50:54.257Z,71.84
2019-05-10T19:53:22.926Z,72.12
2019-05-10T19:55:56.832Z,71.23
2019-05-10T19:58:26.364Z,69.60
2019-05-10T20:00:52.233Z,70.77
2019-05-10T20:03:23.738Z,71.35
2019-05-10T20:05:52.343Z,69.59
2019-05-10T20:08:20.944Z,70.89
2019-05-10T20:10:49.550Z,71.30
2019-05-10T20:13:18.212Z,71.67
2019-05-10T20:15:46.847Z,70.45
2019-05-10T20:18:15.419Z,68.92
2019-05-10T20:20:44.148Z,69.34
2019-05-10T20:23:12.764Z,72.49
2019-05-10T20:25:41.331Z,72.49
2019-05-10T20:28:10.015Z,71.52
2019-05-10T20:30:38.665Z,71.47
2019-05-10T20:33:07.268Z,71.71
2019-05-10T20:35:35.841Z,71.11
2019-05-10T20:38:04.391Z,69.49
2019-05-10T20:40:36.954Z,70.08
2019-05-10T20:43:03.341Z,70.61
2019-05-10T20:45:32.052Z,70.72
2019-05-10T20:48:00.585Z,71.98
2019-05-10T20:50:29.220Z,71.48
2019-05-10T20:52:58.305Z,73.18
2019-05-10T20:55:26.935Z,73.33
2019-05-10T20:57:55.528Z,72.20
2019-05-10T21:00:24.350Z,72.31
2019-05-10T21:02:53.334Z,72.33
2019-05-10T21:05:21.881Z,71.82
2019-05-10T21:07:50.544Z,71.85
2019-05-10T21:10:19.128Z,70.27
2019-05-10T21:12:47.763Z,70.70
2019-05-10T21:15:16.332Z,70.80
2019-05-10T21:17:45.033Z,72.04
2019-05-10T21:20:13.767Z,73.49
2019-05-10T21:22:42.390Z,73.10
2019-05-10T21:25:11.095Z,72.94
2019-05-10T21:27:40.626Z,72.89
2019-05-10T21:30:09.597Z,72.13
2019-05-10T21:32:38.156Z,72.90
2019-05-10T21:35:06.761Z,73.39
2019-05-10T21:37:35.378Z,73.05
2019-05-10T21:40:05.964Z,72.37
2019-05-10T21:42:34.623Z,71.62
2019-05-10T21:45:03.230Z,71.99
2019-05-10T21:47:31.817Z,71.91
2019-05-10T21:50:00.433Z,72.48
2019-05-10T21:52:28.979Z,72.59
2019-05-10T21:54:57.671Z,71.58
2019-05-10T21:57:26.298Z,71.14
2019-05-10T21:59:54.896Z,71.00
2019-05-10T22:02:23.514Z,73.65
2019-05-10T22:04:52.154Z,74.94
2019-05-10T22:07:20.735Z,73.84
2019-05-10T22:09:49.293Z,73.01
2019-05-10T22:12:17.917Z,71.58
2019-05-10T22:14:46.517Z,70.72
2019-05-10T22:17:15.175Z,71.17
2019-05-10T22:19:43.757Z,71.00
2019-05-10T22:22:12.356Z,70.54
2019-05-10T22:24:40.950Z,71.25
2019-05-10T22:27:09.567Z,72.43
2019-05-10T22:29:38.262Z,72.90
2019-05-10T22:32:06.945Z,73.34
2019-05-10T22:34:35.387Z,73.04
2019-05-10T22:37:04.049Z,72.78
2019-05-10T22:39:32.643Z,75.33
2019-05-10T22:42:01.288Z,75.54
2019-05-10T22:44:29.833Z,74.54
2019-05-10T22:46:58.466Z,73.71
2019-05-10T22:49:27.100Z,72.63
2019-05-10T22:51:55.690Z,72.36
2019-05-10T22:54:24.330Z,71.95
2019-05-10T22:56:52.941Z,71.84
2019-05-10T22:59:21.577Z,71.30
2019-05-10T23:01:50.198Z,70.46
2019-05-10T23:04:18.729Z,69.74
2019-05-10T23:06:47.358Z,71.61
2019-05-10T23:09:24.645Z,72.88
2019-05-10T23:11:46.355Z,72.95
2019-05-10T23:14:14.873Z,74.39
2019-05-10T23:16:43.427Z,75.59
2019-05-10T23:19:12.077Z,71.82
2019-05-10T23:21:40.689Z,71.31
2019-05-10T23:24:10.856Z,71.87
2019-05-10T23:26:39.460Z,72.04
2019-05-10T23:29:08.019Z,72.90
2019-05-10T23:31:36.658Z,73.12
2019-05-10T23:34:05.300Z,73.55
2019-05-10T23:36:33.888Z,73.87
2019-05-10T23:39:02.437Z,73.63
2019-05-10T23:41:31.020Z,73.37
2019-05-10T23:43:59.519Z,72.83
2019-05-10T23:46:28.189Z,72.41
2019-05-10T23:48:56.759Z,72.90
2019-05-10T23:51:25.267Z,74.10
2019-05-10T23:53:53.810Z,73.95
2019-05-10T23:56:22.410Z,71.90
2019-05-10T23:58:50.970Z,71.83
